createdAt,value
2017-07-01T00:00:06.408Z,0
2017-07-01T00:01:08.278Z,0
2017-07-01T00:02:10.143Z,0
2017-07-01T00:03:11.973Z,0
2017-07-01T00:04:13.802Z,0
2017-07-01T00:05:15.667Z,0
2017-07-01T00:06:17.563Z,0
2017-07-01T00:07:19.449Z,0
2017-07-01T00:08:33.596Z,0
2017-07-01T00:09:35.484Z,0
2017-07-01T00:10:37.378Z,0
2017-07-01T00:11:39.268Z,0
2017-07-01T00:12:41.079Z,0
2017-07-01T00:13:42.884Z,0
2017-07-01T00:14:44.746Z,0
2017-07-01T00:15:46.639Z,0
2017-07-01T00:16:48.531Z,0
2017-07-01T00:18:02.696Z,0
2017-07-01T00:19:04.589Z,0
2017-07-01T00:20:06.482Z,0
2017-07-01T00:21:08.372Z,0
2017-07-01T00:22:10.208Z,0
2017-07-01T00:23:12.036Z,0
2017-07-01T00:24:13.906Z,0
2017-07-01T00:25:15.769Z,0
2017-07-01T00:26:17.636Z,0
2017-07-01T00:27:31.808Z,0
2017-07-01T00:28:33.692Z,0
2017-07-01T00:29:35.548Z,0
2017-07-01T00:30:37.453Z,0
2017-07-01T00:31:39.261Z,0
2017-07-01T00:32:41.070Z,0
2017-07-01T00:33:42.958Z,0
2017-07-01T00:34:44.827Z,0
2017-07-01T00:35:46.692Z,0
2017-07-01T00:37:00.859Z,0
2017-07-01T00:38:02.748Z,0
2017-07-01T00:39:04.644Z,0
2017-07-01T00:40:06.535Z,0
2017-07-01T00:41:08.366Z,0
2017-07-01T00:42:10.173Z,0
2017-07-01T00:43:12.066Z,0
2017-07-01T00:44:13.961Z,0
2017-07-01T00:45:15.851Z,0
2017-07-01T00:46:30.016Z,0
2017-07-01T00:47:31.900Z,0
2017-07-01T00:48:33.778Z,0
2017-07-01T00:49:35.640Z,0
2017-07-01T00:50:37.472Z,0
2017-07-01T00:51:39.304Z,0
2017-07-01T00:52:41.170Z,0
2017-07-01T00:53:43.032Z,0
2017-07-01T00:54:44.926Z,0
2017-07-01T00:55:59.092Z,0
2017-07-01T00:57:00.987Z,0
2017-07-01T00:58:02.880Z,0
2017-07-01T00:59:04.775Z,0
2017-07-01T01:00:06.578Z,0
2017-07-01T01:01:08.387Z,0
2017-07-01T01:02:10.250Z,0
2017-07-01T01:03:12.120Z,0
2017-07-01T01:04:14.010Z,0
2017-07-01T01:05:28.180Z,0
2017-07-01T01:06:30.071Z,0
2017-07-01T01:07:31.940Z,0
2017-07-01T01:08:33.832Z,0
2017-07-01T01:09:35.660Z,0
2017-07-01T01:10:37.470Z,0
2017-07-01T01:11:39.359Z,0
2017-07-01T01:12:41.247Z,0
2017-07-01T01:13:43.116Z,0
2017-07-01T01:14:57.284Z,0
2017-07-01T01:15:59.148Z,0
2017-07-01T01:17:01.016Z,0
2017-07-01T01:18:02.885Z,0
2017-07-01T01:19:04.718Z,0
2017-07-01T01:20:06.525Z,0
2017-07-01T01:21:08.417Z,0
2017-07-01T01:22:10.304Z,0
2017-07-01T01:23:12.173Z,0
2017-07-01T01:24:26.340Z,0
2017-07-01T01:25:28.201Z,0
2017-07-01T01:26:30.071Z,0
2017-07-01T01:27:31.960Z,0
2017-07-01T01:28:33.797Z,0
2017-07-01T01:29:35.632Z,0
2017-07-01T01:30:37.517Z,0
2017-07-01T01:31:39.387Z,0
2017-07-01T01:32:41.281Z,0
2017-07-01T01:33:55.421Z,0
2017-07-01T01:34:57.286Z,0
2017-07-01T01:35:59.156Z,0
2017-07-01T01:37:01.046Z,0
2017-07-01T01:38:02.854Z,0
2017-07-01T01:39:04.665Z,0
2017-07-01T01:40:06.529Z,0
2017-07-01T01:41:08.397Z,0
2017-07-01T01:42:10.287Z,0
2017-07-01T01:43:24.430Z,0
2017-07-01T01:44:26.325Z,0
2017-07-01T01:45:28.192Z,0
2017-07-01T01:46:30.058Z,0
2017-07-01T01:47:31.869Z,0
2017-07-01T01:48:33.696Z,0
2017-07-01T01:49:35.589Z,0
2017-07-01T01:50:37.482Z,0
2017-07-01T01:51:39.371Z,0
2017-07-01T01:52:53.541Z,0
2017-07-01T01:53:55.433Z,0
2017-07-01T01:54:57.301Z,0
2017-07-01T01:55:59.175Z,0
2017-07-01T01:57:00.985Z,0
2017-07-01T01:58:02.813Z,0
2017-07-01T01:59:04.707Z,0
2017-07-01T02:00:06.603Z,0
2017-07-01T02:01:08.495Z,0
2017-07-01T02:02:22.640Z,0
2017-07-01T02:03:24.503Z,0
2017-07-01T02:04:26.370Z,0
2017-07-01T02:05:28.233Z,0
2017-07-01T02:06:30.038Z,0
2017-07-01T02:07:31.866Z,0
2017-07-01T02:08:33.764Z,0
2017-07-01T02:09:35.657Z,0
2017-07-01T02:10:37.519Z,0
2017-07-01T02:11:51.658Z,0
2017-07-01T02:12:53.531Z,0
2017-07-01T02:13:55.419Z,0
2017-07-01T02:14:57.309Z,0
2017-07-01T02:15:59.112Z,0
2017-07-01T02:17:00.921Z,0
2017-07-01T02:18:02.819Z,0
2017-07-01T02:19:04.916Z,0
2017-07-01T02:20:06.783Z,0
2017-07-01T02:21:20.984Z,0
2017-07-01T02:22:22.858Z,0
2017-07-01T02:23:24.769Z,0
2017-07-01T02:24:26.814Z,0
2017-07-01T02:25:28.654Z,0
2017-07-01T02:26:30.488Z,0
2017-07-01T02:27:32.391Z,0
2017-07-01T02:28:34.348Z,0
2017-07-01T02:29:36.238Z,0
2017-07-01T02:30:50.462Z,0
2017-07-01T02:31:52.325Z,0
2017-07-01T02:32:54.213Z,0
2017-07-01T02:33:56.106Z,0
2017-07-01T02:34:57.963Z,0
2017-07-01T02:35:59.770Z,5
2017-07-01T02:37:01.715Z,5
2017-07-01T02:38:03.594Z,5
2017-07-01T02:39:05.492Z,5
2017-07-01T02:40:19.664Z,5
2017-07-01T02:41:21.574Z,5
2017-07-01T02:42:23.442Z,5
2017-07-01T02:43:25.306Z,5
2017-07-01T02:44:27.115Z,10
2017-07-01T02:45:28.922Z,10
2017-07-01T02:46:30.798Z,10
2017-07-01T02:47:32.694Z,10
2017-07-01T02:48:34.564Z,10
2017-07-01T02:49:48.710Z,15
2017-07-01T02:50:50.576Z,15
2017-07-01T02:51:52.450Z,15
2017-07-01T02:52:54.349Z,20
2017-07-01T02:53:56.184Z,20
2017-07-01T02:54:58.019Z,25
2017-07-01T02:55:59.915Z,25
2017-07-01T02:57:01.810Z,30
2017-07-01T02:58:03.707Z,30
2017-07-01T02:59:17.877Z,35
2017-07-01T03:00:19.743Z,35
2017-07-01T03:01:21.611Z,35
2017-07-01T03:02:23.504Z,40
2017-07-01T03:03:25.318Z,45
2017-07-01T03:04:27.155Z,55
2017-07-01T03:05:29.042Z,60
2017-07-01T03:06:30.916Z,70
2017-07-01T03:07:32.806Z,75
2017-07-01T03:08:46.956Z,75
2017-07-01T03:09:48.825Z,80
2017-07-01T03:10:50.727Z,85
2017-07-01T03:11:52.591Z,90
2017-07-01T03:12:54.400Z,95
2017-07-01T03:13:56.215Z,100
2017-07-01T03:14:58.110Z,105
2017-07-01T03:15:59.978Z,95
2017-07-01T03:17:01.877Z,105
2017-07-01T03:18:16.026Z,140
2017-07-01T03:19:17.921Z,155
2017-07-01T03:20:19.797Z,160
2017-07-01T03:21:21.697Z,165
2017-07-01T03:22:23.537Z,175
2017-07-01T03:23:25.349Z,175
2017-07-01T03:24:27.253Z,185
2017-07-01T03:25:29.153Z,195
2017-07-01T03:26:31.025Z,190
2017-07-01T03:27:45.197Z,195
2017-07-01T03:28:47.073Z,195
2017-07-01T03:29:48.969Z,175
2017-07-01T03:30:50.845Z,200
2017-07-01T03:31:52.658Z,215
2017-07-01T03:32:54.470Z,210
2017-07-01T03:33:56.371Z,220
2017-07-01T03:34:58.245Z,225
2017-07-01T03:36:00.138Z,230
2017-07-01T03:37:14.296Z,240
2017-07-01T03:38:16.196Z,245
2017-07-01T03:39:18.073Z,255
2017-07-01T03:40:19.973Z,265
2017-07-01T03:41:21.791Z,265
2017-07-01T03:42:23.633Z,270
2017-07-01T03:43:25.530Z,280
2017-07-01T03:44:27.412Z,285
2017-07-01T03:45:29.314Z,285
2017-07-01T03:46:43.486Z,265
2017-07-01T03:47:45.364Z,140
2017-07-01T03:48:47.239Z,170
2017-07-01T03:49:49.137Z,215
2017-07-01T03:50:50.955Z,145
2017-07-01T03:51:52.793Z,130
2017-07-01T03:52:54.673Z,130
2017-07-01T03:53:56.577Z,135
2017-07-01T03:54:58.476Z,140
2017-07-01T03:56:12.651Z,145
2017-07-01T03:57:14.528Z,155
2017-07-01T03:58:16.444Z,160
2017-07-01T03:59:18.301Z,160
2017-07-01T04:00:20.140Z,160
2017-07-01T04:01:21.975Z,165
2017-07-01T04:02:23.873Z,165
2017-07-01T04:03:25.754Z,160
2017-07-01T04:04:27.647Z,155
2017-07-01T04:05:41.848Z,155
2017-07-01T04:06:43.761Z,150
2017-07-01T04:07:45.632Z,150
2017-07-01T04:08:47.531Z,155
2017-07-01T04:09:49.369Z,155
2017-07-01T04:10:51.213Z,160
2017-07-01T04:11:53.083Z,165
2017-07-01T04:12:54.980Z,170
2017-07-01T04:13:56.853Z,185
2017-07-01T04:15:11.004Z,195
2017-07-01T04:16:12.875Z,205
2017-07-01T04:17:14.744Z,325
2017-07-01T04:18:16.619Z,585
2017-07-01T04:19:18.439Z,460
2017-07-01T04:20:20.274Z,430
2017-07-01T04:21:22.174Z,670
2017-07-01T04:22:24.051Z,700
2017-07-01T04:23:25.924Z,700
2017-07-01T04:24:40.077Z,690
2017-07-01T04:25:41.952Z,560
2017-07-01T04:26:43.826Z,435
2017-07-01T04:27:45.700Z,275
2017-07-01T04:28:47.517Z,280
2017-07-01T04:29:49.354Z,530
2017-07-01T04:30:51.229Z,460
2017-07-01T04:31:53.112Z,725
2017-07-01T04:32:55.010Z,735
2017-07-01T04:34:09.189Z,740
2017-07-01T04:35:11.063Z,750
2017-07-01T04:36:12.939Z,765
2017-07-01T04:37:14.844Z,805
2017-07-01T04:38:16.687Z,800
2017-07-01T04:39:18.532Z,815
2017-07-01T04:40:20.440Z,815
2017-07-01T04:41:22.340Z,805
2017-07-01T04:42:24.221Z,850
2017-07-01T04:43:38.408Z,865
2017-07-01T04:44:40.310Z,800
2017-07-01T04:45:42.194Z,860
2017-07-01T04:46:44.094Z,875
2017-07-01T04:47:45.911Z,870
2017-07-01T04:48:47.730Z,890
2017-07-01T04:49:49.616Z,910
2017-07-01T04:50:51.520Z,950
2017-07-01T04:51:53.424Z,990
2017-07-01T04:53:07.581Z,845
2017-07-01T04:54:09.462Z,925
2017-07-01T04:55:11.340Z,950
2017-07-01T04:56:13.247Z,955
2017-07-01T04:57:15.064Z,950
2017-07-01T04:58:16.882Z,900
2017-07-01T04:59:18.734Z,875
2017-07-01T05:00:20.577Z,895
2017-07-01T05:01:22.420Z,875
2017-07-01T05:02:36.582Z,800
2017-07-01T05:03:38.493Z,900
2017-07-01T05:04:40.398Z,980
2017-07-01T05:05:42.307Z,1020
2017-07-01T05:06:44.157Z,1100
2017-07-01T05:07:45.972Z,1120
2017-07-01T05:08:47.817Z,615
2017-07-01T05:09:49.649Z,1065
2017-07-01T05:10:51.490Z,855
2017-07-01T05:12:05.647Z,395
2017-07-01T05:13:07.528Z,460
2017-07-01T05:14:09.433Z,405
2017-07-01T05:15:11.308Z,515
2017-07-01T05:16:13.130Z,430
2017-07-01T05:17:14.947Z,475
2017-07-01T05:18:16.848Z,465
2017-07-01T05:19:18.735Z,470
2017-07-01T05:20:20.634Z,475
2017-07-01T05:21:34.797Z,480
2017-07-01T05:22:36.711Z,480
2017-07-01T05:23:38.611Z,475
2017-07-01T05:24:40.515Z,470
2017-07-01T05:25:42.360Z,470
2017-07-01T05:26:44.206Z,470
2017-07-01T05:27:46.109Z,485
2017-07-01T05:28:47.990Z,505
2017-07-01T05:29:49.889Z,510
2017-07-01T05:31:04.052Z,500
2017-07-01T05:32:05.961Z,480
2017-07-01T05:33:07.861Z,460
2017-07-01T05:34:09.742Z,450
2017-07-01T05:35:11.562Z,430
2017-07-01T05:36:13.410Z,415
2017-07-01T05:37:15.312Z,415
2017-07-01T05:38:17.192Z,420
2017-07-01T05:39:19.067Z,420
2017-07-01T05:40:33.221Z,420
2017-07-01T05:41:35.102Z,420
2017-07-01T05:42:37.003Z,435
2017-07-01T05:43:38.883Z,460
2017-07-01T05:44:40.727Z,505
2017-07-01T05:45:42.569Z,525
2017-07-01T05:46:44.474Z,525
2017-07-01T05:47:46.372Z,520
2017-07-01T05:48:48.251Z,510
2017-07-01T05:50:02.432Z,530
2017-07-01T05:51:04.308Z,535
2017-07-01T05:52:06.213Z,550
2017-07-01T05:53:08.119Z,565
2017-07-01T05:54:09.959Z,585
2017-07-01T05:55:11.779Z,580
2017-07-01T05:56:13.689Z,570
2017-07-01T05:57:15.590Z,585
2017-07-01T05:58:17.465Z,615
2017-07-01T05:59:31.650Z,645
2017-07-01T06:00:33.551Z,675
2017-07-01T06:01:35.431Z,650
2017-07-01T06:02:37.338Z,610
2017-07-01T06:03:39.177Z,595
2017-07-01T06:04:40.991Z,595
2017-07-01T06:05:42.870Z,605
2017-07-01T06:06:44.750Z,615
2017-07-01T06:07:46.647Z,630
2017-07-01T06:09:00.809Z,640
2017-07-01T06:10:02.716Z,660
2017-07-01T06:11:04.620Z,675
2017-07-01T06:12:06.525Z,675
2017-07-01T06:13:08.364Z,670
2017-07-01T06:14:10.180Z,650
2017-07-01T06:15:12.067Z,640
2017-07-01T06:16:13.972Z,620
2017-07-01T06:17:15.850Z,605
2017-07-01T06:18:30.033Z,600
2017-07-01T06:19:31.937Z,605
2017-07-01T06:20:33.815Z,595
2017-07-01T06:21:35.693Z,590
2017-07-01T06:22:37.538Z,590
2017-07-01T06:23:39.380Z,595
2017-07-01T06:24:41.283Z,605
2017-07-01T06:25:43.187Z,595
2017-07-01T06:26:45.088Z,610
2017-07-01T06:27:59.247Z,610
2017-07-01T06:29:01.152Z,615
2017-07-01T06:30:03.054Z,615
2017-07-01T06:31:04.957Z,620
2017-07-01T06:32:06.798Z,640
2017-07-01T06:33:08.611Z,655
2017-07-01T06:34:10.492Z,680
2017-07-01T06:35:12.376Z,690
2017-07-01T06:36:14.252Z,685
2017-07-01T06:37:28.436Z,685
2017-07-01T06:38:30.339Z,685
2017-07-01T06:39:32.244Z,675
2017-07-01T06:40:34.144Z,660
2017-07-01T06:41:35.968Z,655
2017-07-01T06:42:37.782Z,640
2017-07-01T06:43:39.660Z,630
2017-07-01T06:44:41.540Z,620
2017-07-01T06:45:43.404Z,620
2017-07-01T06:46:57.572Z,625
2017-07-01T06:47:59.485Z,615
2017-07-01T06:49:01.378Z,615
2017-07-01T06:50:03.284Z,620
2017-07-01T06:51:05.131Z,615
2017-07-01T06:52:06.965Z,620
2017-07-01T06:53:08.842Z,615
2017-07-01T06:54:10.725Z,615
2017-07-01T06:55:12.602Z,620
2017-07-01T06:56:26.759Z,620
2017-07-01T06:57:28.634Z,620
2017-07-01T06:58:30.535Z,625
2017-07-01T06:59:32.424Z,625
2017-07-01T07:00:34.252Z,620
2017-07-01T07:01:36.091Z,620
2017-07-01T07:02:38.003Z,625
2017-07-01T07:03:39.908Z,630
2017-07-01T07:04:41.814Z,625
2017-07-01T07:05:55.994Z,615
2017-07-01T07:06:57.868Z,610
2017-07-01T07:07:59.749Z,610
2017-07-01T07:09:01.657Z,615
2017-07-01T07:10:03.498Z,620
2017-07-01T07:11:05.343Z,625
2017-07-01T07:12:07.248Z,625
2017-07-01T07:13:09.150Z,630
2017-07-01T07:14:11.031Z,635
2017-07-01T07:15:25.211Z,640
2017-07-01T07:16:27.092Z,640
2017-07-01T07:17:28.991Z,640
2017-07-01T07:18:30.869Z,645
2017-07-01T07:19:32.689Z,645
2017-07-01T07:20:34.507Z,645
2017-07-01T07:21:36.406Z,640
2017-07-01T07:22:38.288Z,635
2017-07-01T07:23:40.193Z,635
2017-07-01T07:24:54.346Z,630
2017-07-01T07:25:56.227Z,625
2017-07-01T07:26:58.133Z,625
2017-07-01T07:28:00.041Z,625
2017-07-01T07:29:01.891Z,630
2017-07-01T07:30:03.702Z,635
2017-07-01T07:31:05.583Z,635
2017-07-01T07:32:07.489Z,630
2017-07-01T07:33:09.395Z,635
2017-07-01T07:34:23.577Z,640
2017-07-01T07:35:25.457Z,640
2017-07-01T07:36:27.362Z,655
2017-07-01T07:37:29.267Z,655
2017-07-01T07:38:31.111Z,665
2017-07-01T07:39:32.989Z,675
2017-07-01T07:40:34.857Z,680
2017-07-01T07:41:36.759Z,685
2017-07-01T07:42:38.661Z,695
2017-07-01T07:43:52.914Z,705
2017-07-01T07:44:54.799Z,710
2017-07-01T07:45:56.699Z,715
2017-07-01T07:46:58.601Z,715
2017-07-01T07:48:00.415Z,715
2017-07-01T07:49:02.244Z,720
2017-07-01T07:50:04.137Z,725
2017-07-01T07:51:06.043Z,725
2017-07-01T07:52:07.938Z,730
2017-07-01T07:53:22.102Z,730
2017-07-01T07:54:24.008Z,735
2017-07-01T07:55:25.885Z,735
2017-07-01T07:56:27.787Z,735
2017-07-01T07:57:29.605Z,735
2017-07-01T07:58:31.422Z,745
2017-07-01T07:59:33.306Z,735
2017-07-01T08:00:35.215Z,730
2017-07-01T08:01:37.114Z,740
2017-07-01T08:02:51.347Z,760
2017-07-01T08:03:53.283Z,770
2017-07-01T08:04:55.189Z,765
2017-07-01T08:05:57.072Z,770
2017-07-01T08:06:58.929Z,770
2017-07-01T08:08:00.775Z,765
2017-07-01T08:09:02.720Z,745
2017-07-01T08:10:04.701Z,710
2017-07-01T08:11:06.738Z,660
2017-07-01T08:12:21.062Z,655
2017-07-01T08:13:23.055Z,700
2017-07-01T08:14:24.995Z,745
2017-07-01T08:15:27.070Z,780
2017-07-01T08:16:29.019Z,795
2017-07-01T08:17:30.882Z,795
2017-07-01T08:18:32.937Z,810
2017-07-01T08:19:35.103Z,815
2017-07-01T08:20:37.043Z,815
2017-07-01T08:21:51.208Z,795
2017-07-01T08:22:53.106Z,795
2017-07-01T08:23:54.985Z,810
2017-07-01T08:24:56.866Z,815
2017-07-01T08:25:58.716Z,820
2017-07-01T08:27:00.558Z,820
2017-07-01T08:28:02.489Z,815
2017-07-01T08:29:04.455Z,815
2017-07-01T08:30:06.358Z,815
2017-07-01T08:31:20.518Z,810
2017-07-01T08:32:22.400Z,805
2017-07-01T08:33:24.301Z,805
2017-07-01T08:34:26.186Z,810
2017-07-01T08:35:28.030Z,810
2017-07-01T08:36:29.877Z,810
2017-07-01T08:37:31.783Z,810
2017-07-01T08:38:33.718Z,810
2017-07-01T08:39:35.594Z,815
2017-07-01T08:40:49.775Z,805
2017-07-01T08:41:51.656Z,805
2017-07-01T08:42:53.539Z,805
2017-07-01T08:43:55.449Z,810
2017-07-01T08:44:57.290Z,815
2017-07-01T08:45:59.108Z,815
2017-07-01T08:47:00.993Z,805
2017-07-01T08:48:02.894Z,795
2017-07-01T08:49:04.778Z,780
2017-07-01T08:50:18.955Z,765
2017-07-01T08:51:20.836Z,755
2017-07-01T08:52:22.766Z,745
2017-07-01T08:53:24.672Z,745
2017-07-01T08:54:26.516Z,745
2017-07-01T08:55:28.366Z,750
2017-07-01T08:56:30.274Z,755
2017-07-01T08:57:32.180Z,765
2017-07-01T08:58:34.083Z,770
2017-07-01T08:59:48.246Z,790
2017-07-01T09:00:50.134Z,790
2017-07-01T09:01:52.039Z,800
2017-07-01T09:02:53.943Z,795
2017-07-01T09:03:55.798Z,795
2017-07-01T09:04:57.617Z,795
2017-07-01T09:05:59.501Z,815
2017-07-01T09:07:01.409Z,830
2017-07-01T09:08:03.310Z,835
2017-07-01T09:09:17.493Z,835
2017-07-01T09:10:19.424Z,805
2017-07-01T09:11:21.299Z,790
2017-07-01T09:12:23.175Z,795
2017-07-01T09:13:24.996Z,810
2017-07-01T09:14:26.914Z,825
2017-07-01T09:15:28.851Z,850
2017-07-01T09:16:30.806Z,875
2017-07-01T09:17:32.805Z,890
2017-07-01T09:18:46.990Z,895
2017-07-01T09:19:48.969Z,905
2017-07-01T09:20:50.967Z,915
2017-07-01T09:21:52.947Z,920
2017-07-01T09:22:54.766Z,920
2017-07-01T09:23:56.587Z,915
2017-07-01T09:24:58.549Z,870
2017-07-01T09:26:00.630Z,815
2017-07-01T09:27:02.509Z,750
2017-07-01T09:28:16.672Z,690
2017-07-01T09:29:18.554Z,715
2017-07-01T09:30:20.463Z,730
2017-07-01T09:31:22.363Z,710
2017-07-01T09:32:24.180Z,685
2017-07-01T09:33:26.000Z,665
2017-07-01T09:34:27.884Z,655
2017-07-01T09:35:29.765Z,625
2017-07-01T09:36:31.651Z,595
2017-07-01T09:37:45.801Z,575
2017-07-01T09:38:47.681Z,585
2017-07-01T09:39:49.588Z,605
2017-07-01T09:40:51.464Z,665
2017-07-01T09:41:53.287Z,730
2017-07-01T09:42:55.130Z,770
2017-07-01T09:43:57.034Z,790
2017-07-01T09:44:58.910Z,770
2017-07-01T09:46:00.792Z,730
2017-07-01T09:47:14.954Z,680
2017-07-01T09:48:16.863Z,640
2017-07-01T09:49:18.769Z,590
2017-07-01T09:50:20.668Z,535
2017-07-01T09:51:22.490Z,485
2017-07-01T09:52:24.336Z,450
2017-07-01T09:53:26.301Z,420
2017-07-01T09:54:28.346Z,395
2017-07-01T09:55:30.453Z,375
2017-07-01T09:56:44.709Z,370
2017-07-01T09:57:46.654Z,365
2017-07-01T09:58:48.554Z,365
2017-07-01T09:59:50.438Z,370
2017-07-01T10:00:52.288Z,375
2017-07-01T10:01:54.123Z,375
2017-07-01T10:02:56.033Z,380
2017-07-01T10:03:57.917Z,375
2017-07-01T10:04:59.793Z,380
2017-07-01T10:06:13.972Z,380
2017-07-01T10:07:15.880Z,385
2017-07-01T10:08:17.751Z,385
2017-07-01T10:09:19.631Z,385
2017-07-01T10:10:21.446Z,365
2017-07-01T10:11:23.288Z,360
2017-07-01T10:12:25.191Z,365
2017-07-01T10:13:27.091Z,375
2017-07-01T10:14:28.971Z,370
2017-07-01T10:15:43.151Z,355
2017-07-01T10:16:45.023Z,340
2017-07-01T10:17:46.900Z,325
2017-07-01T10:18:48.779Z,310
2017-07-01T10:19:50.619Z,305
2017-07-01T10:20:52.435Z,300
2017-07-01T10:21:54.339Z,300
2017-07-01T10:22:56.216Z,285
2017-07-01T10:23:58.091Z,280
2017-07-01T10:25:12.268Z,255
2017-07-01T10:26:14.148Z,225
2017-07-01T10:27:16.051Z,215
2017-07-01T10:28:17.930Z,225
2017-07-01T10:29:19.773Z,250
2017-07-01T10:30:21.611Z,280
2017-07-01T10:31:23.515Z,290
2017-07-01T10:32:25.397Z,290
2017-07-01T10:33:27.278Z,275
2017-07-01T10:34:41.584Z,280
2017-07-01T10:35:43.711Z,285
2017-07-01T10:36:45.610Z,265
2017-07-01T10:37:47.490Z,250
2017-07-01T10:38:49.329Z,215
2017-07-01T10:39:51.143Z,190
2017-07-01T10:40:53.043Z,175
2017-07-01T10:41:54.923Z,205
2017-07-01T10:42:56.829Z,290
2017-07-01T10:44:11.010Z,420
2017-07-01T10:45:12.910Z,480
2017-07-01T10:46:14.809Z,520
2017-07-01T10:47:16.688Z,560
2017-07-01T10:48:18.503Z,615
2017-07-01T10:49:20.347Z,640
2017-07-01T10:50:22.356Z,640
2017-07-01T10:51:24.334Z,600
2017-07-01T10:52:26.237Z,530
2017-07-01T10:53:40.415Z,420
2017-07-01T10:54:42.319Z,360
2017-07-01T10:55:44.216Z,305
2017-07-01T10:56:46.097Z,295
2017-07-01T10:57:48.003Z,320
2017-07-01T10:58:49.930Z,330
2017-07-01T10:59:51.879Z,350
2017-07-01T11:00:53.755Z,360
2017-07-01T11:01:55.657Z,370
2017-07-01T11:03:09.841Z,360
2017-07-01T11:04:11.736Z,340
2017-07-01T11:05:13.619Z,330
2017-07-01T11:06:15.519Z,350
2017-07-01T11:07:17.357Z,400
2017-07-01T11:08:19.171Z,425
2017-07-01T11:09:21.052Z,445
2017-07-01T11:10:22.933Z,470
2017-07-01T11:11:24.838Z,535
2017-07-01T11:12:39.021Z,630
2017-07-01T11:13:41.085Z,680
2017-07-01T11:14:43.032Z,725
2017-07-01T11:15:44.911Z,765
2017-07-01T11:16:46.754Z,795
2017-07-01T11:17:48.687Z,805
2017-07-01T11:18:50.782Z,820
2017-07-01T11:19:52.780Z,820
2017-07-01T11:20:54.742Z,825
2017-07-01T11:22:08.935Z,810
2017-07-01T11:23:10.839Z,800
2017-07-01T11:24:13.020Z,755
2017-07-01T11:25:15.206Z,700
2017-07-01T11:26:17.197Z,620
2017-07-01T11:27:19.137Z,500
2017-07-01T11:28:21.107Z,450
2017-07-01T11:29:23.183Z,405
2017-07-01T11:30:25.134Z,430
2017-07-01T11:31:39.378Z,575
2017-07-01T11:32:41.312Z,660
2017-07-01T11:33:43.389Z,730
2017-07-01T11:34:45.362Z,745
2017-07-01T11:35:47.300Z,690
2017-07-01T11:36:49.165Z,670
2017-07-01T11:37:51.114Z,685
2017-07-01T11:38:53.117Z,635
2017-07-01T11:39:55.051Z,580
2017-07-01T11:41:09.446Z,515
2017-07-01T11:42:11.799Z,495
2017-07-01T11:43:13.973Z,530
2017-07-01T11:44:16.068Z,565
2017-07-01T11:45:18.151Z,580
2017-07-01T11:46:20.174Z,570
2017-07-01T11:47:22.178Z,525
2017-07-01T11:48:24.159Z,480
2017-07-01T11:49:26.041Z,445
2017-07-01T11:50:40.193Z,415
2017-07-01T11:51:42.145Z,420
2017-07-01T11:52:44.030Z,440
2017-07-01T11:53:45.980Z,485
2017-07-01T11:54:47.958Z,540
2017-07-01T11:55:49.795Z,605
2017-07-01T11:56:51.673Z,655
2017-07-01T11:57:53.604Z,705
2017-07-01T11:58:55.566Z,745
2017-07-01T12:00:09.762Z,795
2017-07-01T12:01:11.667Z,825
2017-07-01T12:02:13.592Z,835
2017-07-01T12:03:15.579Z,805
2017-07-01T12:04:17.447Z,765
2017-07-01T12:05:19.419Z,740
2017-07-01T12:06:21.326Z,720
2017-07-01T12:07:23.226Z,675
2017-07-01T12:08:25.133Z,620
2017-07-01T12:09:39.288Z,540
2017-07-01T12:10:41.193Z,495
2017-07-01T12:11:43.099Z,470
2017-07-01T12:12:45.006Z,475
2017-07-01T12:13:46.823Z,505
2017-07-01T12:14:48.693Z,535
2017-07-01T12:15:50.632Z,560
2017-07-01T12:16:52.511Z,575
2017-07-01T12:17:54.391Z,570
2017-07-01T12:19:08.571Z,525
2017-07-01T12:20:10.477Z,495
2017-07-01T12:21:12.397Z,455
2017-07-01T12:22:14.303Z,435
2017-07-01T12:23:16.144Z,430
2017-07-01T12:24:17.967Z,430
2017-07-01T12:25:19.868Z,435
2017-07-01T12:26:21.753Z,445
2017-07-01T12:27:23.631Z,450
2017-07-01T12:28:37.815Z,420
2017-07-01T12:29:39.720Z,385
2017-07-01T12:30:41.623Z,355
2017-07-01T12:31:43.502Z,330
2017-07-01T12:32:45.342Z,325
2017-07-01T12:33:47.159Z,360
2017-07-01T12:34:49.040Z,425
2017-07-01T12:35:50.945Z,495
2017-07-01T12:36:52.824Z,575
2017-07-01T12:38:07.009Z,640
2017-07-01T12:39:08.909Z,675
2017-07-01T12:40:10.792Z,685
2017-07-01T12:41:12.695Z,675
2017-07-01T12:42:14.512Z,665
2017-07-01T12:43:16.329Z,640
2017-07-01T12:44:18.211Z,625
2017-07-01T12:45:20.112Z,590
2017-07-01T12:46:22.013Z,565
2017-07-01T12:47:36.193Z,530
2017-07-01T12:48:38.075Z,515
2017-07-01T12:49:39.955Z,490
2017-07-01T12:50:41.855Z,485
2017-07-01T12:51:43.676Z,480
2017-07-01T12:52:45.524Z,485
2017-07-01T12:53:47.402Z,500
2017-07-01T12:54:49.470Z,505
2017-07-01T12:55:51.463Z,515
2017-07-01T12:57:05.681Z,515
2017-07-01T12:58:07.675Z,535
2017-07-01T12:59:09.562Z,550
2017-07-01T13:00:11.511Z,565
2017-07-01T13:01:13.393Z,550
2017-07-01T13:02:15.207Z,515
2017-07-01T13:03:17.091Z,530
2017-07-01T13:04:18.970Z,570
2017-07-01T13:05:20.945Z,615
2017-07-01T13:06:35.114Z,635
2017-07-01T13:07:37.016Z,620
2017-07-01T13:08:38.932Z,600
2017-07-01T13:09:40.808Z,585
2017-07-01T13:10:42.626Z,550
2017-07-01T13:11:44.445Z,505
2017-07-01T13:12:46.328Z,460
2017-07-01T13:13:48.225Z,430
2017-07-01T13:14:50.123Z,410
2017-07-01T13:16:04.275Z,385
2017-07-01T13:17:06.200Z,380
2017-07-01T13:18:08.090Z,370
2017-07-01T13:19:09.984Z,380
2017-07-01T13:20:11.804Z,380
2017-07-01T13:21:13.650Z,385
2017-07-01T13:22:15.553Z,395
2017-07-01T13:23:17.464Z,410
2017-07-01T13:24:19.326Z,420
2017-07-01T13:25:33.514Z,440
2017-07-01T13:26:35.427Z,445
2017-07-01T13:27:37.331Z,440
2017-07-01T13:28:39.214Z,445
2017-07-01T13:29:41.056Z,470
2017-07-01T13:30:42.884Z,500
2017-07-01T13:31:44.802Z,535
2017-07-01T13:32:46.704Z,555
2017-07-01T13:33:48.620Z,540
2017-07-01T13:35:02.798Z,485
2017-07-01T13:36:04.677Z,485
2017-07-01T13:37:06.584Z,550
2017-07-01T13:38:08.490Z,655
2017-07-01T13:39:10.348Z,625
2017-07-01T13:40:12.189Z,600
2017-07-01T13:41:14.093Z,590
2017-07-01T13:42:15.975Z,580
2017-07-01T13:43:17.883Z,625
2017-07-01T13:44:32.058Z,605
2017-07-01T13:45:33.979Z,590
2017-07-01T13:46:35.883Z,590
2017-07-01T13:47:37.798Z,590
2017-07-01T13:48:39.617Z,615
2017-07-01T13:49:41.437Z,660
2017-07-01T13:50:43.483Z,660
2017-07-01T13:51:45.398Z,630
2017-07-01T13:52:47.271Z,655
2017-07-01T13:54:01.452Z,620
2017-07-01T13:55:03.334Z,590
2017-07-01T13:56:05.252Z,585
2017-07-01T13:57:07.147Z,580
2017-07-01T13:58:09.000Z,610
2017-07-01T13:59:10.837Z,660
2017-07-01T14:00:12.744Z,645
2017-07-01T14:01:14.664Z,590
2017-07-01T14:02:16.571Z,560
2017-07-01T14:03:30.759Z,515
2017-07-01T14:04:32.645Z,470
2017-07-01T14:05:34.563Z,445
2017-07-01T14:06:36.431Z,440
2017-07-01T14:07:38.286Z,450
2017-07-01T14:08:40.108Z,455
2017-07-01T14:09:42.020Z,455
2017-07-01T14:10:43.931Z,470
2017-07-01T14:11:45.819Z,505
2017-07-01T14:12:59.991Z,565
2017-07-01T14:14:01.898Z,610
2017-07-01T14:15:03.778Z,630
2017-07-01T14:16:05.692Z,570
2017-07-01T14:17:07.510Z,520
2017-07-01T14:18:09.345Z,520
2017-07-01T14:19:11.226Z,535
2017-07-01T14:20:13.136Z,525
2017-07-01T14:21:15.024Z,520
2017-07-01T14:22:29.204Z,540
2017-07-01T14:23:31.104Z,545
2017-07-01T14:24:33.040Z,505
2017-07-01T14:25:34.949Z,445
2017-07-01T14:26:36.788Z,400
2017-07-01T14:27:38.637Z,365
2017-07-01T14:28:40.507Z,355
2017-07-01T14:29:42.390Z,375
2017-07-01T14:30:44.266Z,420
2017-07-01T14:31:58.448Z,445
2017-07-01T14:33:00.353Z,425
2017-07-01T14:34:02.257Z,350
2017-07-01T14:35:04.153Z,275
2017-07-01T14:36:06.013Z,215
2017-07-01T14:37:07.808Z,175
2017-07-01T14:38:09.729Z,150
2017-07-01T14:39:11.612Z,130
2017-07-01T14:40:13.484Z,110
2017-07-01T14:41:27.662Z,90
2017-07-01T14:42:29.567Z,85